Aérodrome :
LOGIN :

S'inscrire | Disclaimer

   EN    FR    IT 

 










Légende :    VFR   VFR Marginal   IFR   IFR Intensif   IFR Très Intensif
Visi : 
Plafond : 
>= 8 km
>= 3000ft
5 à 8 km
1000 à 3000 ft
1500m à 5 km
500 à 1000 ft
800 à 1500m
200 à 500 ft
< 800m
< 200 ft
Symboles :   Orages  Brouillard  Fortes neiges  Fortes précipitations  Vent > 20 kt
SIGMETs :   Divers  Orages  Givrage  Turbulence  Onde Orograph.  Cendres Volcan.






- Altitude de l'aérodrome : 157 ft
- Code IATA : SXF


EDDB - Berlin Schönefeld

DERNIER METAR :
  • 010450Z 05003KT 010V070 0200 R07L/0700N R07R/0750N FG BKN001 09/09 Q1009 TEMPO 0100 FG

METARs EXPIRÉS :
  • 010420Z 04002KT 0300 R07L/0750VP2000D R07R/0550D FG BKN001 09/09 Q1010 TEMPO 0100 FG
  • 010350Z 01002KT 2800 R07L/0750VP2000D R07R/0800V1900D BCFG BR SCT001 09/09 Q1010 TEMPO 0500 FG BKN001
  • 010320Z 01003KT 6000 BCFG NSC 08/08 Q1010 TEMPO 2500 BCFG
  • 010250Z 02002KT 6000 R07L/0325V0900D R07R/0700N BCFG NSC 08/08 Q1010 TEMPO 2500 BCFG
  • 010220Z 36002KT 6000 BCFG NSC 08/08 Q1010 BECMG 3000 BCFG
  • 010150Z 01003KT 8000 BCFG NSC 08/08 Q1011 BECMG 3000 BCFG

TAF TAF EDDB
Valide du 01 à 00h jusqu'au 02 à 00h UTC


302300Z 0100/0124 VRB03KT 9000 NSC
BECMG 0100/0104 3000 BCFG
TEMPO 0101/0107 0300 FG OVC001
BECMG 0107/0110 7000



MET'MAP, la Météo Aéronautique d'un coup d'oeil ! - Copyright ORBIFLY Décembre 2007 - Disclaimer

ORBIFLY MET'MAP TEAM :

Programmation & Développement : Alexandra Zaïnal
Sur une idée originale de : Baudouin d'Aumeries
Assistance à la programmation : Marc-Olivier Méhu
Soutien technique & logistique : Manuel Goepfert

Contact : metmap@orbifly.com




SOURCES & CREDITS :

   NOAA